Time;durP1;ratioP1;P1;durP2;ratioP2;P2;SDS_P1;SDS_P2;PMS_P1;PMS_P2;Temp;Humidity;BMP_temperature;BMP_pressure;BME280_temperature;BME280_humidity;BME280_pressure;Samples;Min_cycle;Max_cycle;Signal;HPM_P1;HPM_P2
2022/03/30 00:02:09;;;;;;;16.77;4.88;;;;;;;0.12;100.00;97054.63;5110508;28;20064;-49
2022/03/30 00:04:36;;;;;;;13.48;5.32;;;;;;;0.16;100.00;97054.72;5110555;28;20047;-51
2022/03/30 00:07:03;;;;;;;8.43;3.40;;;;;;;0.25;100.00;97049.16;5110500;28;20052;-46
2022/03/30 00:09:29;;;;;;;11.90;3.75;;;;;;;0.24;100.00;97056.47;5110603;28;20062;-49
2022/03/30 00:11:56;;;;;;;9.90;4.03;;;;;;;0.33;100.00;97054.34;5110438;28;20043;-47
2022/03/30 00:14:23;;;;;;;6.78;3.13;;;;;;;0.35;100.00;97049.41;5110152;28;20051;-47
2022/03/30 00:16:51;;;;;;;5.15;2.97;;;;;;;0.41;100.00;97049.94;5110296;28;20054;-47
2022/03/30 00:19:17;;;;;;;4.25;2.67;;;;;;;0.39;100.00;97047.56;5110341;28;20048;-47
2022/03/30 00:21:44;;;;;;;5.28;2.65;;;;;;;0.40;100.00;97054.53;5109661;28;20052;-48
2022/03/30 00:24:10;;;;;;;4.32;2.47;;;;;;;0.37;100.00;97052.56;5110557;28;20085;-48
2022/03/30 00:26:36;;;;;;;7.65;2.78;;;;;;;0.28;100.00;97045.78;5109981;28;20563;-46
2022/03/30 00:29:04;;;;;;;6.63;2.67;;;;;;;0.33;100.00;97050.88;5110436;28;20453;-46
2022/03/30 00:31:31;;;;;;;4.55;2.70;;;;;;;0.19;100.00;97043.25;5110312;28;20055;-46
2022/03/30 00:33:57;;;;;;;4.88;2.42;;;;;;;0.08;100.00;97045.69;5110132;28;20050;-47
2022/03/30 00:36:23;;;;;;;8.00;3.03;;;;;;;0.05;100.00;97040.22;5110201;28;20043;-46
2022/03/30 00:38:49;;;;;;;8.13;2.55;;;;;;;-0.03;100.00;97045.44;5109940;28;20253;-47
2022/03/30 00:41:16;;;;;;;9.38;2.50;;;;;;;-0.03;100.00;97040.03;5110397;28;20050;-47
2022/03/30 00:43:42;;;;;;;8.18;2.95;;;;;;;-0.01;100.00;97048.53;5109924;28;20055;-46
2022/03/30 00:46:11;;;;;;;6.15;2.60;;;;;;;-0.05;100.00;97055.75;5110274;28;20056;-46
2022/03/30 00:48:37;;;;;;;5.78;2.70;;;;;;;-0.01;100.00;97055.84;5109896;28;20503;-49
2022/03/30 00:51:04;;;;;;;5.38;2.33;;;;;;;0.01;100.00;97058.97;5110085;28;20049;-47
2022/03/30 00:53:30;;;;;;;5.57;3.20;;;;;;;0.04;100.00;97052.13;5110073;28;20170;-48
2022/03/30 00:55:56;;;;;;;8.32;2.90;;;;;;;-0.05;100.00;97063.84;5110550;28;20051;-47
2022/03/30 00:58:26;;;;;;;4.55;2.63;;;;;;;-0.03;100.00;97066.19;5109813;28;20047;-47
2022/03/30 01:00:52;;;;;;;5.57;3.00;;;;;;;-0.05;100.00;97065.75;5110193;28;20060;-47
2022/03/30 01:03:19;;;;;;;5.35;2.70;;;;;;;-0.10;100.00;97060.59;5111824;28;20116;-47
2022/03/30 01:05:45;;;;;;;11.48;3.00;;;;;;;-0.09;100.00;97070.28;5113530;28;20520;-48
2022/03/30 01:08:12;;;;;;;5.95;2.78;;;;;;;-0.12;100.00;97068.25;5113662;28;20108;-47
2022/03/30 01:10:38;;;;;;;9.95;3.10;;;;;;;-0.13;100.00;97072.09;5113704;28;20623;-47
2022/03/30 01:13:07;;;;;;;6.40;3.20;;;;;;;-0.17;100.00;97069.28;5113278;28;20058;-46
2022/03/30 01:15:33;;;;;;;6.20;3.10;;;;;;;-0.13;100.00;97083.66;5113544;28;20619;-47
2022/03/30 01:18:00;;;;;;;10.70;3.55;;;;;;;-0.19;100.00;97082.31;5113286;28;20795;-46
2022/03/30 01:20:27;;;;;;;11.57;3.42;;;;;;;-0.24;100.00;97087.94;5113196;28;20108;-47
2022/03/30 01:22:54;;;;;;;11.02;4.10;;;;;;;-0.21;100.00;97100.72;5113171;28;20043;-47
2022/03/30 01:25:20;;;;;;;7.28;4.28;;;;;;;-0.21;100.00;97102.63;5113128;28;20418;-46
2022/03/30 01:27:47;;;;;;;14.95;4.32;;;;;;;-0.18;100.00;97112.72;5113320;28;20047;-47
2022/03/30 01:33:02;;;;;;;10.45;3.85;;;;;;;-0.12;100.00;97114.06;5112969;28;20284;-46
2022/03/30 01:35:29;;;;;;;10.93;3.42;;;;;;;-0.05;100.00;97106.94;5113141;28;20043;-46
2022/03/30 01:37:56;;;;;;;8.30;4.00;;;;;;;-0.04;100.00;97105.00;5112883;28;20430;-46
2022/03/30 01:40:22;;;;;;;10.88;3.58;;;;;;;0.02;100.00;97097.47;5112939;28;20051;-48
2022/03/30 01:42:49;;;;;;;10.18;3.53;;;;;;;0.05;100.00;97088.69;5112736;28;20048;-47
2022/03/30 01:45:16;;;;;;;10.27;3.42;;;;;;;0.06;100.00;97076.78;5112693;28;20098;-48
2022/03/30 01:47:49;;;;;;;8.05;3.85;;;;;;;0.06;100.00;97079.47;5112649;28;20120;-51
2022/03/30 01:50:15;;;;;;;13.90;4.13;;;;;;;0.08;100.00;97090.69;5112394;28;20051;-48
2022/03/30 01:52:41;;;;;;;13.80;3.80;;;;;;;0.10;100.00;97089.25;5112510;28;20055;-49
2022/03/30 01:55:09;;;;;;;12.15;3.97;;;;;;;0.13;100.00;97076.97;5112591;28;20047;-47
2022/03/30 01:57:35;;;;;;;10.07;3.63;;;;;;;0.13;100.00;97083.13;5112730;28;20051;-48
2022/03/30 02:00:04;;;;;;;8.45;3.60;;;;;;;0.12;100.00;97088.88;5112577;28;20051;-47
2022/03/30 02:02:30;;;;;;;9.00;3.55;;;;;;;0.06;100.00;97099.13;5112509;28;20051;-49
2022/03/30 02:04:56;;;;;;;11.38;4.03;;;;;;;0.08;100.00;97112.25;5112313;28;20051;-47
2022/03/30 02:07:22;;;;;;;7.70;3.63;;;;;;;0.06;100.00;97120.66;5112671;28;20461;-47
2022/03/30 02:09:49;;;;;;;9.13;3.35;;;;;;;0.02;100.00;97119.03;5112495;28;20044;-47
2022/03/30 02:12:16;;;;;;;8.48;3.08;;;;;;;-0.06;100.00;97126.94;5112588;28;20877;-46
2022/03/30 02:14:42;;;;;;;6.25;3.53;;;;;;;-0.01;100.00;97117.78;5111272;28;20048;-46
2022/03/30 02:17:08;;;;;;;8.00;3.25;;;;;;;-0.06;100.00;97126.16;5112786;28;20057;-48
2022/03/30 02:19:35;;;;;;;8.18;3.45;;;;;;;-0.07;100.00;97119.97;5111862;28;20043;-46
2022/03/30 02:22:02;;;;;;;4.95;2.75;;;;;;;-0.09;100.00;97127.59;5112048;28;20399;-47
2022/03/30 02:24:28;;;;;;;8.68;3.03;;;;;;;-0.11;100.00;97135.25;5112192;28;20093;-47
2022/03/30 02:26:54;;;;;;;6.90;3.72;;;;;;;-0.11;100.00;97140.63;5111987;28;20064;-48
2022/03/30 02:29:21;;;;;;;8.32;3.22;;;;;;;-0.10;100.00;97144.09;5112214;28;20055;-46
2022/03/30 02:31:47;;;;;;;7.07;4.00;;;;;;;-0.08;100.00;97137.25;5112113;28;20056;-47
2022/03/30 02:34:14;;;;;;;8.65;3.83;;;;;;;-0.08;100.00;97144.53;5112180;28;20048;-47
2022/03/30 02:36:40;;;;;;;7.03;3.75;;;;;;;-0.10;100.00;97144.91;5111748;28;20052;-48
2022/03/30 02:39:07;;;;;;;7.00;3.58;;;;;;;-0.09;100.00;97133.00;5111943;28;20399;-47
2022/03/30 02:41:34;;;;;;;6.75;3.28;;;;;;;-0.07;100.00;97133.44;5111728;28;20078;-47
2022/03/30 02:44:00;;;;;;;6.57;3.55;;;;;;;-0.10;100.00;97127.94;5112039;28;20091;-47
2022/03/30 02:46:27;;;;;;;6.97;3.47;;;;;;;-0.11;100.00;97143.31;5111706;28;20521;-46
2022/03/30 02:48:53;;;;;;;8.82;4.82;;;;;;;-0.05;100.00;97141.94;5111830;28;20055;-47
2022/03/30 02:51:20;;;;;;;9.75;3.85;;;;;;;-0.08;100.00;97141.84;5111612;28;20063;-47
2022/03/30 02:53:46;;;;;;;8.68;3.00;;;;;;;-0.11;100.00;97146.00;5111911;28;20052;-48
2022/03/30 02:56:12;;;;;;;7.07;3.58;;;;;;;-0.05;100.00;97152.72;5111616;28;20101;-46
2022/03/30 02:58:38;;;;;;;7.38;3.42;;;;;;;-0.07;100.00;97152.31;5111667;28;20051;-47
2022/03/30 03:01:04;;;;;;;9.32;3.65;;;;;;;-0.08;100.00;97155.31;5111828;28;20058;-46
2022/03/30 03:03:31;;;;;;;6.03;3.47;;;;;;;-0.11;100.00;97164.09;5111438;28;20071;-47
2022/03/30 03:05:58;;;;;;;8.20;3.17;;;;;;;-0.22;100.00;97161.09;5111721;28;20055;-47
2022/03/30 03:08:24;;;;;;;7.18;3.55;;;;;;;-0.24;100.00;97179.50;5111583;28;20062;-47
2022/03/30 03:10:50;;;;;;;6.95;4.13;;;;;;;-0.30;100.00;97180.88;5111905;28;20417;-47
2022/03/30 03:13:17;;;;;;;6.28;3.75;;;;;;;-0.36;100.00;97183.03;5111621;28;20048;-47
2022/03/30 03:15:45;;;;;;;4.88;3.10;;;;;;;-0.34;100.00;97205.00;5111473;28;20048;-47
2022/03/30 03:18:12;;;;;;;7.50;3.75;;;;;;;-0.27;100.00;97220.56;5111498;28;20105;-48
2022/03/30 03:20:42;;;;;;;8.18;3.20;;;;;;;-0.26;100.00;97241.00;5111431;28;20062;-48
2022/03/30 03:23:08;;;;;;;5.65;3.58;;;;;;;-0.25;100.00;97240.66;5110651;28;20061;-49
2022/03/30 03:25:35;;;;;;;9.45;3.58;;;;;;;-0.25;100.00;97250.66;5110969;28;20055;-49
2022/03/30 03:28:02;;;;;;;8.95;3.60;;;;;;;-0.26;100.00;97241.00;5111321;28;20414;-49
2022/03/30 03:30:28;;;;;;;7.72;4.35;;;;;;;-0.25;100.00;97235.28;5111016;28;20051;-48
2022/03/30 03:32:56;;;;;;;10.23;4.45;;;;;;;-0.22;100.00;97235.72;5111024;28;20048;-48
2022/03/30 03:35:23;;;;;;;7.80;3.53;;;;;;;-0.19;100.00;97240.44;5110812;28;20047;-47
2022/03/30 03:37:50;;;;;;;12.55;3.85;;;;;;;-0.19;100.00;97233.13;5111386;28;20047;-47
2022/03/30 03:40:17;;;;;;;6.10;3.90;;;;;;;-0.16;100.00;97229.75;5110580;28;20051;-49
2022/03/30 03:42:43;;;;;;;7.32;3.90;;;;;;;-0.15;100.00;97228.63;5111071;28;20051;-48
2022/03/30 03:45:10;;;;;;;7.88;3.33;;;;;;;-0.14;100.00;97226.72;5110944;28;20048;-50
2022/03/30 03:47:36;;;;;;;8.35;4.10;;;;;;;-0.15;100.00;97231.31;5110796;28;20047;-47
2022/03/30 03:50:03;;;;;;;6.70;3.92;;;;;;;-0.10;100.00;97224.91;5110862;28;20092;-47
2022/03/30 03:52:31;;;;;;;5.88;3.72;;;;;;;-0.14;100.00;97224.81;5110500;28;20047;-47
2022/03/30 03:54:58;;;;;;;8.75;4.25;;;;;;;-0.06;100.00;97245.44;5110891;28;20113;-47
2022/03/30 03:57:24;;;;;;;7.32;3.80;;;;;;;-0.02;100.00;97256.31;5110509;28;20059;-51
2022/03/30 03:59:51;;;;;;;7.25;3.78;;;;;;;-0.03;100.00;97254.75;5110732;28;20052;-47
2022/03/30 04:02:17;;;;;;;9.02;3.60;;;;;;;-0.04;100.00;97245.09;5110659;28;20404;-46
2022/03/30 04:04:44;;;;;;;6.32;3.53;;;;;;;-0.10;100.00;97243.75;5110572;28;20054;-51
2022/03/30 04:07:11;;;;;;;9.77;4.68;;;;;;;-0.04;100.00;97263.94;5109889;28;20055;-47
2022/03/30 04:09:37;;;;;;;9.20;4.60;;;;;;;-0.11;100.00;97264.53;5110831;28;20052;-47
2022/03/30 04:12:05;;;;;;;7.78;4.13;;;;;;;-0.10;100.00;97265.31;5110500;28;20433;-48
2022/03/30 04:14:31;;;;;;;6.10;3.45;;;;;;;-0.10;100.00;97266.13;5110494;28;20460;-46
2022/03/30 04:16:57;;;;;;;7.07;3.22;;;;;;;-0.13;100.00;97277.56;5110459;28;20051;-46
2022/03/30 04:19:23;;;;;;;5.97;4.05;;;;;;;-0.08;100.00;97295.38;5110343;28;20417;-48
2022/03/30 04:21:50;;;;;;;10.45;3.30;;;;;;;-0.10;100.00;97298.44;5110199;28;20048;-47
2022/03/30 04:24:16;;;;;;;10.20;3.55;;;;;;;-0.05;100.00;97298.19;5110067;28;20051;-48
2022/03/30 04:26:42;;;;;;;5.72;3.17;;;;;;;0.09;100.00;97313.19;5110367;28;20058;-47
2022/03/30 04:29:09;;;;;;;11.70;4.30;;;;;;;0.11;100.00;97300.94;5110031;28;20513;-50
2022/03/30 04:31:35;;;;;;;15.13;3.75;;;;;;;0.20;100.00;97282.75;5110002;28;20104;-49
2022/03/30 04:34:02;;;;;;;6.15;3.50;;;;;;;0.16;100.00;97273.75;5110214;28;20052;-47
2022/03/30 04:36:28;;;;;;;7.65;4.03;;;;;;;0.23;100.00;97268.59;5110370;28;20043;-47
2022/03/30 04:38:56;;;;;;;8.65;4.35;;;;;;;0.32;100.00;97263.03;5109451;28;20048;-48
2022/03/30 04:41:23;;;;;;;6.20;3.58;;;;;;;0.36;100.00;97255.81;5109976;28;20050;-47
2022/03/30 04:43:49;;;;;;;7.70;3.65;;;;;;;0.40;100.00;97258.59;5109830;28;20087;-51
2022/03/30 04:46:17;;;;;;;6.88;3.63;;;;;;;0.41;100.00;97250.19;5110157;28;20234;-48
2022/03/30 04:48:44;;;;;;;14.35;4.38;;;;;;;0.43;100.00;97234.47;5110087;28;20044;-49
2022/03/30 04:51:10;;;;;;;9.00;3.80;;;;;;;0.45;100.00;97232.19;5109647;28;20496;-48
2022/03/30 04:53:36;;;;;;;6.43;3.22;;;;;;;0.48;100.00;97230.72;5110321;28;20121;-48
2022/03/30 04:56:03;;;;;;;15.30;3.33;;;;;;;0.54;100.00;97221.25;5109870;28;20054;-47
2022/03/30 04:58:30;;;;;;;6.57;2.97;;;;;;;0.64;100.00;97211.88;5109929;28;20527;-47
2022/03/30 05:00:56;;;;;;;12.35;3.85;;;;;;;0.68;100.00;97188.47;5109412;28;20044;-47
2022/03/30 05:03:23;;;;;;;8.02;3.42;;;;;;;0.73;100.00;97168.53;5109896;28;20047;-50
2022/03/30 05:05:49;;;;;;;5.72;3.13;;;;;;;0.84;100.00;97170.38;5109423;28;20043;-48
2022/03/30 05:08:15;;;;;;;6.30;3.20;;;;;;;0.94;100.00;97159.03;5109400;28;20125;-47
2022/03/30 05:10:43;;;;;;;7.70;3.63;;;;;;;1.07;100.00;97143.53;5109281;28;20081;-47
2022/03/30 05:13:10;;;;;;;8.88;3.55;;;;;;;1.17;100.00;97139.50;5109260;28;20108;-52
2022/03/30 05:15:36;;;;;;;17.75;3.65;;;;;;;1.34;100.00;97124.81;5108976;28;20044;-47
2022/03/30 05:18:02;;;;;;;6.00;2.80;;;;;;;1.73;100.00;97124.81;5125983;28;20507;-53
2022/03/30 05:20:29;;;;;;;9.00;3.28;;;;;;;2.40;100.00;97109.06;5129373;27;20051;-54
2022/03/30 05:22:55;;;;;;;15.77;3.40;;;;;;;3.29;100.00;97106.91;5117038;28;20190;-57
2022/03/30 05:25:21;;;;;;;4.43;3.08;;;;;;;4.23;100.00;97133.91;5122461;28;20047;-57
2022/03/30 05:27:48;;;;;;;10.05;3.83;;;;;;;4.15;100.00;97192.75;5121120;27;20051;-51
2022/03/30 05:30:15;;;;;;;6.65;3.90;;;;;;;3.90;100.00;97216.06;5125952;28;20048;-50
2022/03/30 05:32:45;;;;;;;10.18;3.42;;;;;;;3.66;100.00;97220.78;5121925;28;20050;-52
2022/03/30 05:35:12;;;;;;;8.65;3.63;;;;;;;4.17;100.00;97209.44;5129794;28;20078;-53
2022/03/30 05:37:39;;;;;;;7.75;3.53;;;;;;;5.28;100.00;97250.44;5129748;28;20047;-52
2022/03/30 05:40:07;;;;;;;9.30;3.65;;;;;;;5.64;100.00;97319.44;5129872;28;20489;-53
2022/03/30 05:42:33;;;;;;;12.02;3.38;;;;;;;6.24;100.00;97356.38;5128819;28;20126;-54
2022/03/30 05:45:00;;;;;;;8.25;3.38;;;;;;;6.96;100.00;97398.34;5126551;27;20145;-61
2022/03/30 05:47:28;;;;;;;10.57;3.65;;;;;;;7.74;100.00;97435.94;5128533;28;20043;-54
2022/03/30 05:49:54;;;;;;;10.77;3.85;;;;;;;8.20;100.00;97479.63;5124864;27;20506;-58
2022/03/30 05:52:20;;;;;;;9.05;3.85;;;;;;;8.37;100.00;97501.84;5117776;28;20051;-59
2022/03/30 05:54:47;;;;;;;4.63;3.38;;;;;;;8.60;100.00;97515.13;5128707;28;20088;-60
2022/03/30 05:57:16;;;;;;;5.03;3.60;;;;;;;8.89;100.00;97530.28;5131921;28;20043;-61
2022/03/30 05:59:44;;;;;;;12.40;3.60;;;;;;;9.05;100.00;97531.84;5132585;28;20047;-62
2022/03/30 06:02:11;;;;;;;4.88;2.88;;;;;;;9.09;100.00;97549.00;5132488;28;20451;-60
2022/03/30 06:04:39;;;;;;;9.95;3.65;;;;;;;8.99;100.00;97538.88;5132214;28;20057;-58
2022/03/30 06:07:05;;;;;;;14.82;3.88;;;;;;;8.77;100.00;97533.47;5130303;27;20109;-60
2022/03/30 06:09:33;;;;;;;12.38;3.22;;;;;;;8.84;100.00;97538.13;5131407;27;20501;-58
2022/03/30 06:12:01;;;;;;;8.48;3.53;;;;;;;8.40;100.00;97537.38;5122396;28;20492;-59
2022/03/30 06:14:27;;;;;;;6.93;3.03;;;;;;;7.60;100.00;97513.06;5132527;28;20501;-58
2022/03/30 06:16:53;;;;;;;5.22;2.80;;;;;;;7.48;100.00;97488.84;5132992;28;20051;-58
2022/03/30 06:19:20;;;;;;;10.88;3.20;;;;;;;7.26;100.00;97493.44;5133090;28;20049;-59
2022/03/30 06:21:47;;;;;;;5.90;2.78;;;;;;;7.55;100.00;97495.09;5123917;28;20653;-54
2022/03/30 06:24:13;;;;;;;5.05;2.78;;;;;;;8.28;100.00;97517.84;5112337;28;20100;-57
2022/03/30 06:26:40;;;;;;;14.73;1.95;;;;;;;8.73;100.00;97543.63;5112420;28;20044;-56
2022/03/30 06:29:07;;;;;;;5.38;1.98;;;;;;;8.75;100.00;97565.06;5120055;27;20057;-57
2022/03/30 06:31:34;;;;;;;7.28;1.75;;;;;;;8.67;100.00;97581.47;5121741;28;20051;-57
2022/03/30 06:34:01;;;;;;;2.42;1.60;;;;;;;8.62;100.00;97589.25;5132451;28;20150;-57
2022/03/30 06:36:28;;;;;;;6.28;2.00;;;;;;;8.58;100.00;97585.75;5132194;28;20043;-52
2022/03/30 06:38:54;;;;;;;4.32;2.20;;;;;;;9.26;100.00;97588.41;5131602;28;20104;-58
2022/03/30 06:41:20;;;;;;;4.13;2.03;;;;;;;9.83;100.00;97597.22;5123900;27;20047;-58
2022/03/30 06:43:46;;;;;;;1.65;1.50;;;;;;;10.46;95.82;97619.22;5111393;28;20596;-53
2022/03/30 06:46:14;;;;;;;3.15;2.05;;;;;;;10.78;93.91;97624.44;5112135;28;20051;-61
2022/03/30 06:48:40;;;;;;;2.67;1.92;;;;;;;10.96;92.73;97629.81;5132086;27;20051;-60
2022/03/30 06:51:06;;;;;;;4.70;2.30;;;;;;;11.04;89.09;97639.53;5131754;28;20401;-54
2022/03/30 06:53:33;;;;;;;5.13;2.00;;;;;;;11.24;89.46;97637.00;5132293;28;20055;-60
2022/03/30 06:55:59;;;;;;;7.43;2.10;;;;;;;10.97;88.96;97652.53;5132388;28;20050;-58
2022/03/30 06:58:25;;;;;;;4.25;2.20;;;;;;;10.88;89.01;97650.22;5131386;28;20092;-54
2022/03/30 07:00:53;;;;;;;6.22;3.28;;;;;;;10.67;92.09;97653.13;5117214;28;20047;-56
2022/03/30 07:03:22;;;;;;;4.75;2.92;;;;;;;11.19;89.07;97656.63;5131973;28;20047;-55
2022/03/30 07:05:48;;;;;;;4.13;2.65;;;;;;;11.20;88.09;97662.91;5131995;28;20047;-55
2022/03/30 07:10:59;;;;;;;4.68;2.30;;;;;;;11.20;88.50;97662.91;5130879;28;20538;-57
2022/03/30 07:13:25;;;;;;;4.03;1.80;;;;;;;11.37;86.45;97664.69;5131494;28;20433;-55
2022/03/30 07:15:52;;;;;;;5.90;2.10;;;;;;;10.92;85.39;97677.63;5131818;28;20043;-53
2022/03/30 07:18:20;;;;;;;4.43;2.05;;;;;;;11.15;83.88;97677.81;5131894;28;20058;-54
2022/03/30 07:20:47;;;;;;;3.63;2.28;;;;;;;11.32;82.48;97676.88;5131173;28;20548;-54
2022/03/30 07:23:14;;;;;;;4.25;1.67;;;;;;;12.00;84.02;97664.47;5110930;28;20048;-56
2022/03/30 07:25:42;;;;;;;3.78;1.60;;;;;;;12.33;77.11;97689.53;5110598;28;20043;-53
2022/03/30 07:28:08;;;;;;;1.88;1.63;;;;;;;12.05;76.99;97696.94;5110699;28;20471;-56
2022/03/30 07:30:36;;;;;;;2.38;1.80;;;;;;;11.89;76.60;97708.50;5111372;28;20055;-56
2022/03/30 07:33:02;;;;;;;3.78;2.10;;;;;;;11.99;75.19;97704.09;5128464;28;20142;-55
2022/03/30 07:35:32;;;;;;;3.08;2.10;;;;;;;12.05;75.74;97702.44;5131499;28;20414;-54
2022/03/30 07:38:00;;;;;;;6.55;1.85;;;;;;;11.95;76.85;97706.88;5129754;28;20055;-57
2022/03/30 07:40:29;;;;;;;3.97;1.88;;;;;;;11.73;79.67;97700.81;5110586;28;20079;-55
2022/03/30 07:42:56;;;;;;;4.95;1.70;;;;;;;11.40;78.27;97710.53;5110647;28;20087;-55
2022/03/30 07:45:23;;;;;;;2.10;1.58;;;;;;;11.39;79.47;97699.94;5112079;28;20085;-61
2022/03/30 07:47:50;;;;;;;3.03;1.70;;;;;;;10.95;79.79;97702.25;5127444;28;20051;-57
2022/03/30 07:50:16;;;;;;;1.70;1.52;;;;;;;10.65;82.00;97708.34;5130610;27;20053;-60
2022/03/30 07:52:43;;;;;;;12.32;2.50;;;;;;;11.14;83.54;97705.66;5129642;28;20047;-55
2022/03/30 07:55:11;;;;;;;3.90;2.05;;;;;;;11.05;84.71;97712.38;5126598;28;20055;-55
2022/03/30 07:57:39;;;;;;;13.88;2.42;;;;;;;11.09;87.34;97698.63;5110822;28;20536;-56
2022/03/30 08:00:08;;;;;;;3.28;2.22;;;;;;;10.78;87.40;97692.19;5110464;28;20066;-52
2022/03/30 08:02:34;;;;;;;2.33;1.90;;;;;;;10.39;84.93;97706.13;5110404;28;20085;-52
2022/03/30 08:05:00;;;;;;;2.63;1.80;;;;;;;10.24;89.13;97692.47;5122289;28;20055;-56
2022/03/30 08:07:28;;;;;;;4.82;2.15;;;;;;;10.33;87.70;97698.34;5131061;28;20051;-54
2022/03/30 08:09:55;;;;;;;7.45;2.17;;;;;;;10.74;90.01;97692.22;5130887;28;20047;-51
2022/03/30 08:12:22;;;;;;;4.28;2.50;;;;;;;10.72;87.62;97693.81;5129822;27;20058;-52
2022/03/30 08:14:49;;;;;;;2.80;1.92;;;;;;;10.28;85.76;97706.97;5116293;27;20065;-56
2022/03/30 08:17:15;;;;;;;5.35;2.35;;;;;;;10.28;87.54;97703.44;5125781;28;20058;-54
2022/03/30 08:19:41;;;;;;;4.68;2.33;;;;;;;10.26;92.40;97684.69;5110651;28;20383;-55
2022/03/30 08:22:25;;;;;;;5.15;2.13;;;;;;;10.38;87.39;97696.34;5113988;28;20050;-55
2022/03/30 08:24:52;;;;;;;4.30;2.05;;;;;;;9.50;88.74;97701.69;5130296;28;20421;-52
2022/03/30 08:27:21;;;;;;;10.57;2.10;;;;;;;8.54;93.53;97692.28;5130752;28;20054;-54
2022/03/30 08:29:49;;;;;;;2.95;1.80;;;;;;;8.30;98.91;97677.38;5120785;28;20055;-57
2022/03/30 08:32:17;;;;;;;3.85;2.30;;;;;;;8.18;99.15;97681.22;5109865;28;20055;-55
2022/03/30 08:34:44;;;;;;;3.30;2.08;;;;;;;8.01;100.00;97671.81;5108777;28;20105;-56
2022/03/30 08:37:10;;;;;;;6.13;2.30;;;;;;;7.99;100.00;97657.75;5109603;28;20055;-54
2022/03/30 08:39:37;;;;;;;3.60;2.40;;;;;;;7.92;100.00;97646.81;5116638;28;20046;-53
2022/03/30 08:42:04;;;;;;;5.55;2.20;;;;;;;7.90;100.00;97651.09;5109663;28;20460;-57
2022/03/30 08:44:32;;;;;;;7.15;2.20;;;;;;;7.85;100.00;97635.88;5109477;28;20048;-54
2022/03/30 08:46:59;;;;;;;3.80;2.10;;;;;;;7.81;100.00;97640.53;5108209;28;20051;-54
2022/03/30 08:49:27;;;;;;;1.80;1.70;;;;;;;7.68;100.00;97647.50;5115606;27;20073;-56
2022/03/30 08:51:57;;;;;;;2.83;1.90;;;;;;;7.81;100.00;97654.19;5130513;28;20433;-55
2022/03/30 08:54:24;;;;;;;3.78;1.98;;;;;;;7.70;100.00;97650.63;5130431;28;20047;-56
2022/03/30 08:56:50;;;;;;;7.32;2.60;;;;;;;7.53;100.00;97655.59;5129995;28;20151;-55
2022/03/30 08:59:18;;;;;;;8.80;2.92;;;;;;;7.45;100.00;97642.31;5116401;28;20047;-53
2022/03/30 09:01:45;;;;;;;3.40;2.03;;;;;;;7.35;100.00;97632.13;5109313;28;20139;-56
2022/03/30 09:04:14;;;;;;;3.08;1.83;;;;;;;7.23;100.00;97623.09;5109572;28;20052;-55
2022/03/30 09:06:43;;;;;;;3.58;1.85;;;;;;;7.45;100.00;97610.38;5109768;28;20055;-54
2022/03/30 09:09:09;;;;;;;6.93;2.20;;;;;;;7.45;100.00;97615.81;5113122;27;20774;-52
2022/03/30 09:11:45;;;;;;;6.75;2.00;;;;;;;7.30;100.00;97625.09;5116646;28;20098;-54
2022/03/30 09:14:13;;;;;;;8.13;2.53;;;;;;;7.47;100.00;97610.78;5122786;28;20082;-51
2022/03/30 09:16:40;;;;;;;2.28;1.40;;;;;;;7.57;100.00;97622.91;5130116;28;20111;-54
2022/03/30 09:19:09;;;;;;;4.63;1.88;;;;;;;7.36;100.00;97634.44;5129863;28;20054;-54
2022/03/30 09:21:46;;;;;;;1.85;1.52;;;;;;;7.21;100.00;97628.16;5129186;28;20154;-56
2022/03/30 09:24:15;;;;;;;3.30;1.75;;;;;;;7.04;100.00;97632.31;5130011;27;20054;-56
2022/03/30 09:26:42;;;;;;;5.45;2.17;;;;;;;6.77;100.00;97622.78;5133362;28;20047;-58
2022/03/30 09:29:09;;;;;;;3.88;1.83;;;;;;;6.63;100.00;97620.72;5133411;28;20047;-57
2022/03/30 09:31:36;;;;;;;2.22;1.52;;;;;;;6.76;100.00;97611.06;5129061;27;20456;-59
2022/03/30 09:34:05;;;;;;;2.35;1.50;;;;;;;6.89;100.00;97600.66;5129634;28;20062;-56
2022/03/30 09:36:33;;;;;;;3.92;1.50;;;;;;;7.03;100.00;97611.69;5129101;27;20516;-55
2022/03/30 09:39:00;;;;;;;4.22;1.90;;;;;;;7.01;100.00;97614.00;5123624;27;20430;-61
2022/03/30 09:41:26;;;;;;;6.15;1.90;;;;;;;6.90;100.00;97615.88;5112458;28;20053;-57
2022/03/30 09:44:02;;;;;;;4.60;1.77;;;;;;;6.93;100.00;97606.94;5131811;28;20529;-56
2022/03/30 09:46:28;;;;;;;7.30;1.70;;;;;;;6.80;100.00;97613.84;5131624;28;20043;-55
2022/03/30 09:48:54;;;;;;;2.75;2.10;;;;;;;6.62;100.00;97605.53;5132222;28;20502;-58
2022/03/30 09:51:24;;;;;;;2.83;1.63;;;;;;;6.58;100.00;97608.22;5133120;28;20057;-56
2022/03/30 09:53:51;;;;;;;1.73;1.42;;;;;;;6.45;100.00;97601.50;5129834;27;20433;-57
2022/03/30 09:56:19;;;;;;;8.18;1.95;;;;;;;6.49;100.00;97588.69;5121014;28;20507;-58
2022/03/30 09:58:47;;;;;;;3.33;1.95;;;;;;;6.44;100.00;97589.03;5124421;28;20054;-55
2022/03/30 10:01:17;;;;;;;3.70;2.00;;;;;;;6.60;100.00;97605.91;5132511;28;20074;-55
2022/03/30 10:03:47;;;;;;;2.47;1.77;;;;;;;6.59;100.00;97620.66;5132588;28;20447;-55
2022/03/30 10:06:14;;;;;;;7.10;2.33;;;;;;;6.58;100.00;97618.31;5132740;28;20047;-53
2022/03/30 10:08:42;;;;;;;1.58;1.38;;;;;;;6.74;100.00;97615.34;5132690;28;20500;-56
2022/03/30 10:11:10;;;;;;;3.22;1.83;;;;;;;6.55;100.00;97625.31;5130445;28;20085;-56
2022/03/30 10:13:37;;;;;;;3.70;1.70;;;;;;;6.51;100.00;97608.16;5131657;28;20137;-55
2022/03/30 10:16:05;;;;;;;4.82;2.05;;;;;;;6.55;100.00;97613.63;5146856;27;20043;-54
2022/03/30 10:18:32;;;;;;;7.68;2.08;;;;;;;6.54;100.00;97614.78;5132001;27;20422;-57
2022/03/30 10:21:15;;;;;;;2.60;2.05;;;;;;;6.34;100.00;97608.78;5112695;28;20058;-57
2022/03/30 10:23:56;;;;;;;3.88;2.15;;;;;;;6.43;100.00;97594.84;5109506;28;20058;-52
2022/03/30 10:26:34;;;;;;;3.95;2.28;;;;;;;6.53;100.00;97599.59;5111521;28;20048;-55
2022/03/30 10:29:05;;;;;;;6.28;2.08;;;;;;;6.47;100.00;97599.19;5111613;28;20056;-58
2022/03/30 10:31:31;;;;;;;132.15;9.90;;;;;;;6.52;100.00;97607.00;5122744;27;20055;-53
2022/03/30 10:33:57;;;;;;;10.05;2.47;;;;;;;6.48;100.00;97608.13;5119638;28;20066;-56
2022/03/30 10:36:27;;;;;;;2.17;1.75;;;;;;;6.35;100.00;97605.66;5109015;28;20426;-52
2022/03/30 10:39:24;;;;;;;4.50;2.28;;;;;;;6.33;100.00;97599.03;5125969;28;20054;-55
2022/03/30 10:41:53;;;;;;;3.75;2.22;;;;;;;6.15;100.00;97598.09;5110907;28;20055;-58
2022/03/30 10:44:41;;;;;;;5.80;2.25;;;;;;;5.94;100.00;97585.84;5129404;28;20047;-53
2022/03/30 10:47:10;;;;;;;3.95;2.08;;;;;;;5.82;100.00;97567.03;5130403;28;20051;-53
2022/03/30 10:49:44;;;;;;;5.07;2.15;;;;;;;5.90;100.00;97565.94;5131867;28;20080;-54
2022/03/30 10:52:35;;;;;;;18.35;7.05;;;;;;;5.94;100.00;97553.19;5131287;28;20505;-54
2022/03/30 10:55:36;;;;;;;5.30;2.05;;;;;;;5.90;100.00;97553.13;5131088;28;20058;-57
2022/03/30 10:58:15;;;;;;;3.70;2.55;;;;;;;5.92;100.00;97547.31;5129483;28;20523;-53
2022/03/30 11:00:41;;;;;;;3.63;2.03;;;;;;;6.00;100.00;97534.56;5118114;28;20062;-54
2022/03/30 11:03:10;;;;;;;5.75;2.60;;;;;;;5.88;100.00;97527.47;5131899;28;20051;-56
2022/03/30 11:05:37;;;;;;;7.78;2.13;;;;;;;5.96;100.00;97514.72;5131939;28;20043;-56
2022/03/30 11:08:05;;;;;;;3.55;2.20;;;;;;;6.06;100.00;97527.66;5131930;28;20047;-54
2022/03/30 11:10:45;;;;;;;5.10;2.85;;;;;;;6.06;100.00;97519.47;5130147;27;20189;-56
2022/03/30 11:13:12;;;;;;;11.43;3.28;;;;;;;6.08;100.00;97522.63;5131225;28;20061;-57
2022/03/30 11:16:06;;;;;;;10.98;3.50;;;;;;;6.19;100.00;97507.16;5131140;28;20054;-53
2022/03/30 11:18:33;;;;;;;12.52;3.13;;;;;;;6.08;100.00;97498.91;5131511;27;20828;-55
2022/03/30 11:21:15;;;;;;;7.03;3.33;;;;;;;5.84;100.00;97485.84;5131583;27;20047;-52
2022/03/30 11:24:17;;;;;;;20.67;3.88;;;;;;;5.79;100.00;97461.72;5129006;28;20051;-59
2022/03/30 11:27:16;;;;;;;24.58;3.85;;;;;;;5.75;100.00;97467.13;5131262;27;20057;-53
2022/03/30 11:29:54;;;;;;;4.25;2.92;;;;;;;5.94;100.00;97458.00;5127270;28;20047;-56
2022/03/30 11:32:58;;;;;;;4.25;2.90;;;;;;;5.87;100.00;97463.34;5130979;28;20050;-51
2022/03/30 11:35:42;;;;;;;10.35;3.10;;;;;;;5.81;100.00;97462.13;5129017;28;20053;-52
2022/03/30 11:38:21;;;;;;;7.22;2.78;;;;;;;5.90;100.00;97438.91;5128616;27;20073;-55
2022/03/30 11:40:49;;;;;;;9.90;3.30;;;;;;;6.04;100.00;97438.25;5129340;28;20150;-55